sensor_id;sensor_type;location;lat;lon;timestamp;pressure;altitude;pressure_sealevel;temperature;humidity
9822;BME280;4950;46.042;14.472;2023-05-29T00:01:33;97900.31;;;18.05;67.40
9822;BME280;4950;46.042;14.472;2023-05-29T00:04:01;97901.78;;;18.01;67.45
9822;BME280;4950;46.042;14.472;2023-05-29T00:06:27;97898.44;;;17.93;67.87
9822;BME280;4950;46.042;14.472;2023-05-29T00:08:56;97898.84;;;17.90;68.01
9822;BME280;4950;46.042;14.472;2023-05-29T00:11:22;97902.78;;;17.81;67.64
9822;BME280;4950;46.042;14.472;2023-05-29T00:13:49;97900.31;;;17.68;67.45
9822;BME280;4950;46.042;14.472;2023-05-29T00:16:15;97903.44;;;17.58;67.22
9822;BME280;4950;46.042;14.472;2023-05-29T00:18:43;97900.00;;;17.57;67.06
9822;BME280;4950;46.042;14.472;2023-05-29T00:21:10;97899.38;;;17.62;67.02
9822;BME280;4950;46.042;14.472;2023-05-29T00:23:37;97901.25;;;17.55;66.99
9822;BME280;4950;46.042;14.472;2023-05-29T00:26:05;97897.63;;;17.56;67.30
9822;BME280;4950;46.042;14.472;2023-05-29T00:28:32;97893.84;;;17.52;67.43
9822;BME280;4950;46.042;14.472;2023-05-29T00:30:59;97894.53;;;17.59;66.98
9822;BME280;4950;46.042;14.472;2023-05-29T00:33:26;97891.50;;;17.62;66.81
9822;BME280;4950;46.042;14.472;2023-05-29T00:35:52;97887.91;;;17.56;67.01
9822;BME280;4950;46.042;14.472;2023-05-29T00:38:19;97890.53;;;17.56;66.93
9822;BME280;4950;46.042;14.472;2023-05-29T00:40:46;97891.22;;;17.52;66.34
9822;BME280;4950;46.042;14.472;2023-05-29T00:43:14;97882.59;;;17.45;66.87
9822;BME280;4950;46.042;14.472;2023-05-29T00:45:40;97882.00;;;17.43;67.38
9822;BME280;4950;46.042;14.472;2023-05-29T00:48:07;97882.22;;;17.41;67.55
9822;BME280;4950;46.042;14.472;2023-05-29T00:50:34;97885.59;;;17.48;67.93
9822;BME280;4950;46.042;14.472;2023-05-29T00:53:01;97892.50;;;17.43;67.79
9822;BME280;4950;46.042;14.472;2023-05-29T00:55:29;97887.25;;;17.43;68.02
9822;BME280;4950;46.042;14.472;2023-05-29T00:57:56;97897.47;;;17.32;68.65
9822;BME280;4950;46.042;14.472;2023-05-29T01:00:24;97893.06;;;17.26;69.49
9822;BME280;4950;46.042;14.472;2023-05-29T01:02:51;97890.00;;;17.11;70.25
9822;BME280;4950;46.042;14.472;2023-05-29T01:05:18;97884.75;;;17.11;70.61
9822;BME280;4950;46.042;14.472;2023-05-29T01:07:46;97881.38;;;17.04;70.88
9822;BME280;4950;46.042;14.472;2023-05-29T01:10:14;97879.91;;;17.08;70.94
9822;BME280;4950;46.042;14.472;2023-05-29T01:12:46;97883.53;;;17.07;71.16
9822;BME280;4950;46.042;14.472;2023-05-29T01:15:20;97881.38;;;17.04;71.01
9822;BME280;4950;46.042;14.472;2023-05-29T01:18:08;97884.78;;;17.04;70.97
9822;BME280;4950;46.042;14.472;2023-05-29T01:20:41;97889.66;;;17.01;71.54
9822;BME280;4950;46.042;14.472;2023-05-29T01:23:23;97891.06;;;17.03;71.02
9822;BME280;4950;46.042;14.472;2023-05-29T01:26:10;97888.06;;;17.00;71.17
9822;BME280;4950;46.042;14.472;2023-05-29T01:28:41;97891.09;;;16.96;71.34
9822;BME280;4950;46.042;14.472;2023-05-29T01:31:09;97897.22;;;16.90;71.66
9822;BME280;4950;46.042;14.472;2023-05-29T01:33:38;97887.78;;;16.83;72.06
9822;BME280;4950;46.042;14.472;2023-05-29T01:36:05;97888.75;;;16.88;71.93
9822;BME280;4950;46.042;14.472;2023-05-29T01:38:33;97886.56;;;16.85;72.29
9822;BME280;4950;46.042;14.472;2023-05-29T01:44:20;97888.81;;;16.82;72.03
9822;BME280;4950;46.042;14.472;2023-05-29T01:46:49;97892.25;;;16.75;72.37
9822;BME280;4950;46.042;14.472;2023-05-29T01:49:16;97886.84;;;16.70;73.12
9822;BME280;4950;46.042;14.472;2023-05-29T01:51:43;97885.63;;;16.73;73.26
9822;BME280;4950;46.042;14.472;2023-05-29T01:54:10;97890.91;;;16.66;73.50
9822;BME280;4950;46.042;14.472;2023-05-29T01:56:37;97889.94;;;16.61;74.04
9822;BME280;4950;46.042;14.472;2023-05-29T01:59:05;97881.28;;;16.60;74.14
9822;BME280;4950;46.042;14.472;2023-05-29T02:01:33;97887.53;;;16.59;73.94
9822;BME280;4950;46.042;14.472;2023-05-29T02:04:00;97879.47;;;16.61;74.13
9822;BME280;4950;46.042;14.472;2023-05-29T02:06:27;97889.66;;;16.44;74.75
9822;BME280;4950;46.042;14.472;2023-05-29T02:08:53;97884.88;;;16.34;75.28
9822;BME280;4950;46.042;14.472;2023-05-29T02:15:04;97890.56;;;16.31;75.35
9822;BME280;4950;46.042;14.472;2023-05-29T02:18:14;97890.38;;;16.26;75.62
9822;BME280;4950;46.042;14.472;2023-05-29T02:20:42;97888.13;;;16.29;75.32
9822;BME280;4950;46.042;14.472;2023-05-29T02:23:09;97890.69;;;16.04;76.12
9822;BME280;4950;46.042;14.472;2023-05-29T02:25:35;97882.13;;;15.70;77.53
9822;BME280;4950;46.042;14.472;2023-05-29T02:28:02;97897.28;;;15.55;78.46
9822;BME280;4950;46.042;14.472;2023-05-29T02:30:30;97893.00;;;15.67;78.58
9822;BME280;4950;46.042;14.472;2023-05-29T02:32:57;97889.00;;;15.58;79.10
9822;BME280;4950;46.042;14.472;2023-05-29T02:35:25;97892.03;;;15.55;79.62
9822;BME280;4950;46.042;14.472;2023-05-29T02:37:52;97897.06;;;15.50;79.20
9822;BME280;4950;46.042;14.472;2023-05-29T02:40:19;97898.53;;;15.26;80.64
9822;BME280;4950;46.042;14.472;2023-05-29T02:42:47;97898.16;;;15.15;81.09
9822;BME280;4950;46.042;14.472;2023-05-29T02:45:13;97891.13;;;15.16;81.05
9822;BME280;4950;46.042;14.472;2023-05-29T02:47:40;97891.31;;;15.14;80.96
9822;BME280;4950;46.042;14.472;2023-05-29T02:50:07;97895.16;;;14.98;81.07
9822;BME280;4950;46.042;14.472;2023-05-29T02:52:36;97897.16;;;14.83;83.00
9822;BME280;4950;46.042;14.472;2023-05-29T02:55:03;97904.59;;;14.86;82.94
9822;BME280;4950;46.042;14.472;2023-05-29T02:57:31;97903.41;;;15.02;82.47
9822;BME280;4950;46.042;14.472;2023-05-29T02:59:57;97903.56;;;15.07;82.01
9822;BME280;4950;46.042;14.472;2023-05-29T03:05:46;97903.97;;;15.24;81.01
9822;BME280;4950;46.042;14.472;2023-05-29T03:08:14;97898.91;;;15.43;80.13
9822;BME280;4950;46.042;14.472;2023-05-29T03:10:40;97891.84;;;15.50;79.82
9822;BME280;4950;46.042;14.472;2023-05-29T03:16:22;97901.28;;;15.57;79.66
9822;BME280;4950;46.042;14.472;2023-05-29T03:22:19;97899.25;;;15.66;78.83
9822;BME280;4950;46.042;14.472;2023-05-29T03:24:47;97902.69;;;15.73;78.27
9822;BME280;4950;46.042;14.472;2023-05-29T03:27:14;97902.47;;;15.75;78.62
9822;BME280;4950;46.042;14.472;2023-05-29T03:29:40;97897.25;;;15.75;78.31
9822;BME280;4950;46.042;14.472;2023-05-29T03:32:07;97902.47;;;15.75;78.04
9822;BME280;4950;46.042;14.472;2023-05-29T03:34:34;97902.06;;;15.71;78.50
9822;BME280;4950;46.042;14.472;2023-05-29T03:37:00;97896.81;;;15.71;78.36
9822;BME280;4950;46.042;14.472;2023-05-29T03:39:27;97904.09;;;15.63;78.32
9822;BME280;4950;46.042;14.472;2023-05-29T03:41:55;97910.75;;;15.58;78.15
9822;BME280;4950;46.042;14.472;2023-05-29T03:44:22;97896.28;;;15.49;77.67
9822;BME280;4950;46.042;14.472;2023-05-29T03:46:49;97906.38;;;15.32;78.87
9822;BME280;4950;46.042;14.472;2023-05-29T03:49:16;97915.00;;;15.33;78.85
9822;BME280;4950;46.042;14.472;2023-05-29T03:51:42;97908.56;;;15.42;79.06
9822;BME280;4950;46.042;14.472;2023-05-29T03:54:48;97909.97;;;15.45;79.10
9822;BME280;4950;46.042;14.472;2023-05-29T03:57:16;97914.03;;;15.34;80.59
9822;BME280;4950;46.042;14.472;2023-05-29T03:59:43;97904.56;;;15.39;80.80
9822;BME280;4950;46.042;14.472;2023-05-29T04:02:09;97912.22;;;15.41;80.42
9822;BME280;4950;46.042;14.472;2023-05-29T04:04:36;97913.81;;;15.35;80.56
9822;BME280;4950;46.042;14.472;2023-05-29T04:07:05;97912.81;;;15.36;80.64
9822;BME280;4950;46.042;14.472;2023-05-29T04:09:32;97907.56;;;15.43;80.99
9822;BME280;4950;46.042;14.472;2023-05-29T04:11:59;97911.75;;;15.57;80.38
9822;BME280;4950;46.042;14.472;2023-05-29T04:18:05;97912.97;;;15.48;78.05
9822;BME280;4950;46.042;14.472;2023-05-29T04:20:32;97917.44;;;15.41;78.29
9822;BME280;4950;46.042;14.472;2023-05-29T04:22:58;97925.28;;;15.34;78.61
9822;BME280;4950;46.042;14.472;2023-05-29T04:25:25;97937.59;;;15.27;79.05
9822;BME280;4950;46.042;14.472;2023-05-29T04:27:51;97934.53;;;15.17;79.59
9822;BME280;4950;46.042;14.472;2023-05-29T04:30:18;97930.31;;;15.09;79.94
9822;BME280;4950;46.042;14.472;2023-05-29T04:32:45;97928.53;;;15.10;80.28
9822;BME280;4950;46.042;14.472;2023-05-29T04:35:13;97934.13;;;15.13;80.26
9822;BME280;4950;46.042;14.472;2023-05-29T04:37:40;97928.91;;;15.13;80.37
9822;BME280;4950;46.042;14.472;2023-05-29T04:40:09;97928.72;;;15.28;79.85
9822;BME280;4950;46.042;14.472;2023-05-29T04:42:36;97932.72;;;15.31;79.90
9822;BME280;4950;46.042;14.472;2023-05-29T04:45:04;97933.34;;;15.39;80.32
9822;BME280;4950;46.042;14.472;2023-05-29T04:47:31;97938.53;;;15.46;79.54
9822;BME280;4950;46.042;14.472;2023-05-29T04:49:58;97943.19;;;15.51;79.78
9822;BME280;4950;46.042;14.472;2023-05-29T04:52:26;97942.78;;;15.47;79.75
9822;BME280;4950;46.042;14.472;2023-05-29T04:58:15;97940.34;;;15.59;79.19
9822;BME280;4950;46.042;14.472;2023-05-29T05:00:41;97939.53;;;15.65;79.19
9822;BME280;4950;46.042;14.472;2023-05-29T05:03:09;97936.34;;;15.56;79.27
9822;BME280;4950;46.042;14.472;2023-05-29T05:05:36;97935.50;;;15.56;79.53
9822;BME280;4950;46.042;14.472;2023-05-29T05:08:04;97947.81;;;15.42;79.59
9822;BME280;4950;46.042;14.472;2023-05-29T05:10:30;97947.63;;;15.37;81.31
9822;BME280;4950;46.042;14.472;2023-05-29T05:12:57;97942.19;;;15.45;81.56
9822;BME280;4950;46.042;14.472;2023-05-29T05:15:23;97937.53;;;15.54;81.43
9822;BME280;4950;46.042;14.472;2023-05-29T05:17:50;97942.75;;;15.54;80.64
9822;BME280;4950;46.042;14.472;2023-05-29T05:20:17;97938.75;;;15.51;81.23
9822;BME280;4950;46.042;14.472;2023-05-29T05:22:43;97939.94;;;15.55;80.65
9822;BME280;4950;46.042;14.472;2023-05-29T05:25:11;97938.72;;;15.58;80.72
9822;BME280;4950;46.042;14.472;2023-05-29T05:27:38;97944.78;;;15.58;81.07
9822;BME280;4950;46.042;14.472;2023-05-29T05:30:05;97938.13;;;15.63;80.43
9822;BME280;4950;46.042;14.472;2023-05-29T05:32:33;97936.28;;;15.70;80.16
9822;BME280;4950;46.042;14.472;2023-05-29T05:34:59;97943.34;;;15.83;79.62
9822;BME280;4950;46.042;14.472;2023-05-29T05:37:26;97939.09;;;15.82;79.32
9822;BME280;4950;46.042;14.472;2023-05-29T05:39:53;97952.19;;;15.82;79.42
9822;BME280;4950;46.042;14.472;2023-05-29T05:42:21;97955.63;;;15.75;79.75
9822;BME280;4950;46.042;14.472;2023-05-29T05:44:47;97954.41;;;15.71;79.65
9822;BME280;4950;46.042;14.472;2023-05-29T05:47:14;97955.63;;;15.75;79.72
9822;BME280;4950;46.042;14.472;2023-05-29T05:49:40;97956.22;;;15.77;80.00
9822;BME280;4950;46.042;14.472;2023-05-29T05:52:08;97957.03;;;15.78;80.05
9822;BME280;4950;46.042;14.472;2023-05-29T05:54:35;97958.84;;;15.71;80.14
9822;BME280;4950;46.042;14.472;2023-05-29T05:57:02;97958.25;;;15.75;80.10
9822;BME280;4950;46.042;14.472;2023-05-29T05:59:30;97962.06;;;15.79;80.00
9822;BME280;4950;46.042;14.472;2023-05-29T06:01:56;97952.38;;;15.87;80.24
9822;BME280;4950;46.042;14.472;2023-05-29T06:04:23;97957.78;;;15.98;79.34
9822;BME280;4950;46.042;14.472;2023-05-29T06:06:49;97959.16;;;16.08;78.77
9822;BME280;4950;46.042;14.472;2023-05-29T06:09:16;97950.06;;;16.17;78.68
9822;BME280;4950;46.042;14.472;2023-05-29T06:11:43;97956.06;;;16.24;78.23
9822;BME280;4950;46.042;14.472;2023-05-29T06:14:10;97955.22;;;16.30;77.51
9822;BME280;4950;46.042;14.472;2023-05-29T06:16:38;97948.53;;;16.34;77.93
9822;BME280;4950;46.042;14.472;2023-05-29T06:19:04;97954.78;;;16.40;77.76
9822;BME280;4950;46.042;14.472;2023-05-29T06:21:31;97943.84;;;16.50;77.51
9822;BME280;4950;46.042;14.472;2023-05-29T06:23:58;97947.44;;;16.55;77.22
9822;BME280;4950;46.042;14.472;2023-05-29T06:26:25;97945.38;;;16.64;77.27
9822;BME280;4950;46.042;14.472;2023-05-29T06:28:51;97949.97;;;16.69;76.79
9822;BME280;4950;46.042;14.472;2023-05-29T06:31:18;97950.78;;;16.69;75.88
9822;BME280;4950;46.042;14.472;2023-05-29T06:33:46;97955.41;;;16.74;76.09
9822;BME280;4950;46.042;14.472;2023-05-29T06:36:13;97955.34;;;16.81;76.02
9822;BME280;4950;46.042;14.472;2023-05-29T06:38:40;97951.09;;;16.86;76.06
9822;BME280;4950;46.042;14.472;2023-05-29T06:41:06;97956.09;;;16.94;75.13
9822;BME280;4950;46.042;14.472;2023-05-29T06:43:33;97951.00;;;17.00;75.11
9822;BME280;4950;46.042;14.472;2023-05-29T06:45:59;97952.97;;;17.04;74.72
9822;BME280;4950;46.042;14.472;2023-05-29T06:48:26;97945.50;;;17.08;74.64
9822;BME280;4950;46.042;14.472;2023-05-29T06:50:54;97949.47;;;17.17;74.60
9822;BME280;4950;46.042;14.472;2023-05-29T06:53:20;97954.03;;;17.28;74.45
9822;BME280;4950;46.042;14.472;2023-05-29T06:55:47;97946.50;;;17.32;73.84
9822;BME280;4950;46.042;14.472;2023-05-29T06:58:13;97950.28;;;17.36;73.15
9822;BME280;4950;46.042;14.472;2023-05-29T07:00:40;97952.41;;;17.46;73.01
9822;BME280;4950;46.042;14.472;2023-05-29T07:03:06;97951.72;;;17.57;73.11
9822;BME280;4950;46.042;14.472;2023-05-29T07:05:33;97943.78;;;17.64;72.13
9822;BME280;4950;46.042;14.472;2023-05-29T07:08:01;97953.63;;;17.68;70.87
9822;BME280;4950;46.042;14.472;2023-05-29T07:10:28;97943.19;;;17.80;71.39
9822;BME280;4950;46.042;14.472;2023-05-29T07:12:54;97941.75;;;17.84;71.52
9822;BME280;4950;46.042;14.472;2023-05-29T07:15:21;97945.56;;;17.88;71.07
9822;BME280;4950;46.042;14.472;2023-05-29T07:17:48;97942.28;;;17.93;71.11
9822;BME280;4950;46.042;14.472;2023-05-29T07:20:14;97950.66;;;18.02;71.05
9822;BME280;4950;46.042;14.472;2023-05-29T07:22:42;97948.78;;;18.09;70.47
9822;BME280;4950;46.042;14.472;2023-05-29T07:25:10;97951.44;;;18.21;69.16
9822;BME280;4950;46.042;14.472;2023-05-29T07:27:36;97948.72;;;18.27;69.59
9822;BME280;4950;46.042;14.472;2023-05-29T07:30:03;97939.72;;;18.35;69.96
9822;BME280;4950;46.042;14.472;2023-05-29T07:32:30;97941.03;;;18.44;68.46
9822;BME280;4950;46.042;14.472;2023-05-29T07:34:57;97938.09;;;18.52;68.70
9822;BME280;4950;46.042;14.472;2023-05-29T07:37:24;97941.88;;;18.57;68.38
9822;BME280;4950;46.042;14.472;2023-05-29T07:39:50;97942.00;;;18.62;68.16
9822;BME280;4950;46.042;14.472;2023-05-29T07:42:18;97939.19;;;18.75;67.74
9822;BME280;4950;46.042;14.472;2023-05-29T07:44:45;97935.91;;;18.80;67.52
9822;BME280;4950;46.042;14.472;2023-05-29T07:47:13;97930.78;;;18.85;67.60
9822;BME280;4950;46.042;14.472;2023-05-29T07:49:40;97940.41;;;18.91;68.17
9822;BME280;4950;46.042;14.472;2023-05-29T07:52:06;97929.66;;;19.04;67.63
9822;BME280;4950;46.042;14.472;2023-05-29T07:54:33;97929.78;;;19.21;67.14
9822;BME280;4950;46.042;14.472;2023-05-29T07:57:00;97937.91;;;19.31;65.29
9822;BME280;4950;46.042;14.472;2023-05-29T07:59:29;97933.22;;;19.33;65.62
9822;BME280;4950;46.042;14.472;2023-05-29T08:01:56;97925.66;;;19.37;65.40
9822;BME280;4950;46.042;14.472;2023-05-29T08:04:23;97928.63;;;19.41;65.91
9822;BME280;4950;46.042;14.472;2023-05-29T08:06:50;97934.00;;;19.46;66.53
9822;BME280;4950;46.042;14.472;2023-05-29T08:09:16;97929.66;;;19.51;66.88
9822;BME280;4950;46.042;14.472;2023-05-29T08:11:43;97924.47;;;19.68;65.25
9822;BME280;4950;46.042;14.472;2023-05-29T08:14:11;97921.06;;;19.80;65.53
9822;BME280;4950;46.042;14.472;2023-05-29T08:16:39;97920.94;;;19.86;64.72
9822;BME280;4950;46.042;14.472;2023-05-29T08:19:06;97920.78;;;19.93;63.99
9822;BME280;4950;46.042;14.472;2023-05-29T08:21:32;97929.94;;;20.02;63.84
9822;BME280;4950;46.042;14.472;2023-05-29T08:23:59;97923.50;;;20.10;63.87
9822;BME280;4950;46.042;14.472;2023-05-29T08:26:26;97923.56;;;20.15;63.37
9822;BME280;4950;46.042;14.472;2023-05-29T08:28:56;97927.91;;;20.33;62.13
9822;BME280;4950;46.042;14.472;2023-05-29T08:31:22;97920.94;;;20.44;62.53
9822;BME280;4950;46.042;14.472;2023-05-29T08:33:52;97915.63;;;20.56;62.46
9822;BME280;4950;46.042;14.472;2023-05-29T08:36:19;97920.84;;;20.67;60.38
9822;BME280;4950;46.042;14.472;2023-05-29T08:38:46;97912.25;;;20.72;60.62
9822;BME280;4950;46.042;14.472;2023-05-29T08:41:17;97916.22;;;20.75;60.41
9822;BME280;4950;46.042;14.472;2023-05-29T08:43:48;97914.16;;;20.77;60.35
9822;BME280;4950;46.042;14.472;2023-05-29T08:46:17;97910.97;;;20.75;60.59
9822;BME280;4950;46.042;14.472;2023-05-29T08:48:47;97912.63;;;20.81;61.50
9822;BME280;4950;46.042;14.472;2023-05-29T08:51:19;97916.00;;;20.93;58.54
9822;BME280;4950;46.042;14.472;2023-05-29T08:53:47;97903.44;;;21.00;58.61
9822;BME280;4950;46.042;14.472;2023-05-29T08:56:14;97898.06;;;21.12;59.52
9822;BME280;4950;46.042;14.472;2023-05-29T08:58:41;97919.66;;;21.26;59.97
9822;BME280;4950;46.042;14.472;2023-05-29T09:01:09;97912.06;;;21.29;58.74
9822;BME280;4950;46.042;14.472;2023-05-29T09:03:36;97910.75;;;21.32;58.63
9822;BME280;4950;46.042;14.472;2023-05-29T09:06:04;97906.91;;;21.40;56.73
9822;BME280;4950;46.042;14.472;2023-05-29T09:08:33;97904.38;;;21.45;56.74
9822;BME280;4950;46.042;14.472;2023-05-29T09:11:00;97909.31;;;21.58;57.34
9822;BME280;4950;46.042;14.472;2023-05-29T09:13:27;97909.34;;;21.63;56.20
9822;BME280;4950;46.042;14.472;2023-05-29T09:15:57;97909.44;;;21.68;55.21
9822;BME280;4950;46.042;14.472;2023-05-29T09:18:27;97910.06;;;21.76;55.92
9822;BME280;4950;46.042;14.472;2023-05-29T09:20:54;97911.72;;;21.82;56.90
9822;BME280;4950;46.042;14.472;2023-05-29T09:23:21;97913.72;;;21.97;54.87
9822;BME280;4950;46.042;14.472;2023-05-29T09:25:51;97907.75;;;22.06;54.02
9822;BME280;4950;46.042;14.472;2023-05-29T09:28:20;97902.63;;;22.22;53.37
9822;BME280;4950;46.042;14.472;2023-05-29T09:30:49;97913.63;;;22.36;53.03
9822;BME280;4950;46.042;14.472;2023-05-29T09:33:16;97902.63;;;22.44;52.61
9822;BME280;4950;46.042;14.472;2023-05-29T09:35:44;97904.25;;;22.50;52.34
9822;BME280;4950;46.042;14.472;2023-05-29T09:38:12;97900.16;;;22.64;50.92
9822;BME280;4950;46.042;14.472;2023-05-29T09:40:39;97892.50;;;22.68;48.76
9822;BME280;4950;46.042;14.472;2023-05-29T09:43:12;97899.69;;;22.73;46.87
9822;BME280;4950;46.042;14.472;2023-05-29T09:45:40;97900.03;;;22.81;46.38
9822;BME280;4950;46.042;14.472;2023-05-29T09:48:07;97898.75;;;22.89;46.18
9822;BME280;4950;46.042;14.472;2023-05-29T09:50:34;97891.91;;;22.93;45.51
9822;BME280;4950;46.042;14.472;2023-05-29T09:53:01;97889.03;;;23.00;46.57
9822;BME280;4950;46.042;14.472;2023-05-29T09:55:30;97887.34;;;23.21;43.87
9822;BME280;4950;46.042;14.472;2023-05-29T09:57:58;97886.66;;;23.36;43.77
9822;BME280;4950;46.042;14.472;2023-05-29T10:00:27;97884.53;;;23.43;43.16
9822;BME280;4950;46.042;14.472;2023-05-29T10:02:56;97881.94;;;23.53;41.75
9822;BME280;4950;46.042;14.472;2023-05-29T10:05:22;97872.16;;;23.54;40.54
9822;BME280;4950;46.042;14.472;2023-05-29T10:07:52;97885.94;;;23.56;40.90
9822;BME280;4950;46.042;14.472;2023-05-29T10:10:20;97879.28;;;23.53;38.31
9822;BME280;4950;46.042;14.472;2023-05-29T10:12:49;97876.66;;;23.58;40.96
9822;BME280;4950;46.042;14.472;2023-05-29T10:15:16;97876.44;;;23.65;41.51
9822;BME280;4950;46.042;14.472;2023-05-29T10:17:52;97879.91;;;23.71;40.55
9822;BME280;4950;46.042;14.472;2023-05-29T10:20:22;97878.34;;;23.75;40.52
9822;BME280;4950;46.042;14.472;2023-05-29T10:22:51;97878.38;;;23.80;39.07
9822;BME280;4950;46.042;14.472;2023-05-29T10:25:20;97877.06;;;23.82;40.92
9822;BME280;4950;46.042;14.472;2023-05-29T10:27:47;97879.72;;;23.88;40.68
9822;BME280;4950;46.042;14.472;2023-05-29T10:30:24;97875.78;;;23.95;41.76
9822;BME280;4950;46.042;14.472;2023-05-29T10:33:28;97871.56;;;24.10;38.76
9822;BME280;4950;46.042;14.472;2023-05-29T10:36:03;97872.13;;;24.17;38.18
9822;BME280;4950;46.042;14.472;2023-05-29T10:38:33;97864.72;;;24.24;37.06
9822;BME280;4950;46.042;14.472;2023-05-29T10:41:28;97864.44;;;24.31;36.00
9822;BME280;4950;46.042;14.472;2023-05-29T10:43:55;97871.06;;;24.33;37.50
9822;BME280;4950;46.042;14.472;2023-05-29T10:47:00;97861.78;;;24.41;36.67
9822;BME280;4950;46.042;14.472;2023-05-29T10:49:29;97863.09;;;24.33;36.93
9822;BME280;4950;46.042;14.472;2023-05-29T10:51:57;97858.06;;;24.27;36.26
9822;BME280;4950;46.042;14.472;2023-05-29T10:54:25;97858.59;;;24.29;36.78
9822;BME280;4950;46.042;14.472;2023-05-29T10:56:52;97850.38;;;24.40;36.97
9822;BME280;4950;46.042;14.472;2023-05-29T10:59:21;97849.88;;;24.54;36.86
9822;BME280;4950;46.042;14.472;2023-05-29T11:01:51;97858.09;;;24.52;36.78
9822;BME280;4950;46.042;14.472;2023-05-29T11:04:31;97849.88;;;24.54;36.37
9822;BME280;4950;46.042;14.472;2023-05-29T11:07:00;97846.16;;;24.60;37.52
9822;BME280;4950;46.042;14.472;2023-05-29T11:09:33;97836.59;;;24.74;35.89
9822;BME280;4950;46.042;14.472;2023-05-29T11:12:15;97850.94;;;24.73;36.38
9822;BME280;4950;46.042;14.472;2023-05-29T11:14:54;97842.69;;;24.80;36.79
9822;BME280;4950;46.042;14.472;2023-05-29T11:17:44;97845.34;;;24.90;36.02
9822;BME280;4950;46.042;14.472;2023-05-29T11:20:28;97849.06;;;24.94;36.07
9822;BME280;4950;46.042;14.472;2023-05-29T11:23:04;97833.63;;;25.01;36.13
9822;BME280;4950;46.042;14.472;2023-05-29T11:25:34;97839.19;;;25.05;34.28
9822;BME280;4950;46.042;14.472;2023-05-29T11:28:02;97831.50;;;25.03;34.00
9822;BME280;4950;46.042;14.472;2023-05-29T11:30:44;97833.94;;;24.85;34.11
9822;BME280;4950;46.042;14.472;2023-05-29T11:33:19;97821.16;;;24.92;35.59
9822;BME280;4950;46.042;14.472;2023-05-29T11:35:55;97824.59;;;25.02;36.25
9822;BME280;4950;46.042;14.472;2023-05-29T11:38:22;97820.31;;;25.17;36.98
9822;BME280;4950;46.042;14.472;2023-05-29T11:40:49;97834.38;;;25.33;34.83
9822;BME280;4950;46.042;14.472;2023-05-29T11:43:16;97822.16;;;25.37;35.33
9822;BME280;4950;46.042;14.472;2023-05-29T11:45:42;97822.38;;;25.46;35.75
9822;BME280;4950;46.042;14.472;2023-05-29T11:48:09;97820.22;;;25.48;34.54
9822;BME280;4950;46.042;14.472;2023-05-29T11:50:36;97815.44;;;25.45;35.03
9822;BME280;4950;46.042;14.472;2023-05-29T11:53:06;97816.25;;;25.45;36.02
9822;BME280;4950;46.042;14.472;2023-05-29T11:55:33;97810.97;;;25.40;35.21
9822;BME280;4950;46.042;14.472;2023-05-29T11:58:01;97819.75;;;25.35;35.89
9822;BME280;4950;46.042;14.472;2023-05-29T12:00:31;97812.56;;;25.41;35.24
9822;BME280;4950;46.042;14.472;2023-05-29T12:02:58;97806.94;;;25.53;35.68
9822;BME280;4950;46.042;14.472;2023-05-29T12:05:29;97807.72;;;25.53;33.81
9822;BME280;4950;46.042;14.472;2023-05-29T12:07:56;97820.75;;;25.55;35.29
9822;BME280;4950;46.042;14.472;2023-05-29T12:10:24;97818.56;;;25.62;34.95
9822;BME280;4950;46.042;14.472;2023-05-29T12:12:51;97806.28;;;25.71;34.87
9822;BME280;4950;46.042;14.472;2023-05-29T12:15:19;97804.91;;;25.79;34.44
9822;BME280;4950;46.042;14.472;2023-05-29T12:17:47;97806.53;;;25.80;34.10
9822;BME280;4950;46.042;14.472;2023-05-29T12:20:14;97807.56;;;25.84;34.39
9822;BME280;4950;46.042;14.472;2023-05-29T12:22:43;97795.38;;;25.78;34.37
9822;BME280;4950;46.042;14.472;2023-05-29T12:25:11;97801.19;;;25.80;35.50
9822;BME280;4950;46.042;14.472;2023-05-29T12:27:41;97797.44;;;25.86;34.74
9822;BME280;4950;46.042;14.472;2023-05-29T12:30:09;97799.53;;;25.94;35.68
9822;BME280;4950;46.042;14.472;2023-05-29T12:32:37;97801.09;;;25.95;33.56
9822;BME280;4950;46.042;14.472;2023-05-29T12:35:15;97800.63;;;25.83;33.15
9822;BME280;4950;46.042;14.472;2023-05-29T12:37:44;97799.34;;;25.75;33.52
9822;BME280;4950;46.042;14.472;2023-05-29T12:40:13;97795.06;;;25.79;34.24
9822;BME280;4950;46.042;14.472;2023-05-29T12:42:42;97794.50;;;25.88;34.52
9822;BME280;4950;46.042;14.472;2023-05-29T12:45:09;97794.72;;;25.96;33.97
9822;BME280;4950;46.042;14.472;2023-05-29T12:47:35;97786.16;;;26.05;33.96
9822;BME280;4950;46.042;14.472;2023-05-29T12:50:19;97790.88;;;26.13;35.40
9822;BME280;4950;46.042;14.472;2023-05-29T12:52:48;97781.25;;;26.22;34.19
9822;BME280;4950;46.042;14.472;2023-05-29T12:55:18;97784.38;;;26.29;34.70
9822;BME280;4950;46.042;14.472;2023-05-29T12:57:46;97780.06;;;26.38;33.71
9822;BME280;4950;46.042;14.472;2023-05-29T13:00:14;97783.75;;;26.43;33.94
9822;BME280;4950;46.042;14.472;2023-05-29T13:02:40;97792.75;;;26.47;33.47
9822;BME280;4950;46.042;14.472;2023-05-29T13:05:07;97780.97;;;26.53;32.61
9822;BME280;4950;46.042;14.472;2023-05-29T13:07:34;97774.56;;;26.54;33.35
9822;BME280;4950;46.042;14.472;2023-05-29T13:10:00;97770.28;;;26.58;33.26
9822;BME280;4950;46.042;14.472;2023-05-29T13:12:28;97768.97;;;26.55;32.03
9822;BME280;4950;46.042;14.472;2023-05-29T13:14:55;97767.91;;;26.27;31.54
9822;BME280;4950;46.042;14.472;2023-05-29T13:17:22;97768.03;;;26.12;32.30
9822;BME280;4950;46.042;14.472;2023-05-29T13:19:49;97762.13;;;26.15;31.84
9822;BME280;4950;46.042;14.472;2023-05-29T13:22:15;97763.13;;;26.24;31.96
9822;BME280;4950;46.042;14.472;2023-05-29T13:24:42;97760.94;;;26.31;32.77
9822;BME280;4950;46.042;14.472;2023-05-29T13:27:08;97750.78;;;26.38;33.27
9822;BME280;4950;46.042;14.472;2023-05-29T13:29:35;97753.88;;;26.46;32.76
9822;BME280;4950;46.042;14.472;2023-05-29T13:32:03;97748.00;;;26.49;32.21
9822;BME280;4950;46.042;14.472;2023-05-29T13:34:30;97743.13;;;26.56;32.20
9822;BME280;4950;46.042;14.472;2023-05-29T13:36:57;97743.94;;;26.56;31.65
9822;BME280;4950;46.042;14.472;2023-05-29T13:39:25;97733.00;;;26.58;32.14
9822;BME280;4950;46.042;14.472;2023-05-29T13:41:52;97738.28;;;26.63;32.16